sensor_id;sensor_type;location;lat;lon;timestamp;P1;durP1;ratioP1;P2;durP2;ratioP2
15966;SDS011;15175;48.154;11.534;2023-11-19T00:00:32;2.83;;;1.35;;
15966;SDS011;15175;48.154;11.534;2023-11-19T00:06:34;3.60;;;1.75;;
15966;SDS011;15175;48.154;11.534;2023-11-19T00:12:37;3.25;;;1.63;;
15966;SDS011;15175;48.154;11.534;2023-11-19T00:18:41;3.70;;;1.90;;
15966;SDS011;15175;48.154;11.534;2023-11-19T00:24:43;4.15;;;1.65;;
15966;SDS011;15175;48.154;11.534;2023-11-19T00:30:46;3.53;;;1.70;;
15966;SDS011;15175;48.154;11.534;2023-11-19T00:36:49;3.22;;;1.30;;
15966;SDS011;15175;48.154;11.534;2023-11-19T00:42:51;3.35;;;1.80;;
15966;SDS011;15175;48.154;11.534;2023-11-19T00:48:54;3.17;;;1.65;;
15966;SDS011;15175;48.154;11.534;2023-11-19T00:54:57;3.17;;;1.10;;
15966;SDS011;15175;48.154;11.534;2023-11-19T01:00:59;2.55;;;1.35;;
15966;SDS011;15175;48.154;11.534;2023-11-19T01:07:01;2.00;;;1.02;;
15966;SDS011;15175;48.154;11.534;2023-11-19T01:13:06;3.22;;;1.17;;
15966;SDS011;15175;48.154;11.534;2023-11-19T01:19:08;2.72;;;1.30;;
15966;SDS011;15175;48.154;11.534;2023-11-19T01:25:11;2.63;;;1.10;;
15966;SDS011;15175;48.154;11.534;2023-11-19T01:31:15;1.83;;;0.98;;
15966;SDS011;15175;48.154;11.534;2023-11-19T01:37:17;2.63;;;1.30;;
15966;SDS011;15175;48.154;11.534;2023-11-19T01:43:33;3.47;;;1.15;;
15966;SDS011;15175;48.154;11.534;2023-11-19T01:49:37;3.65;;;1.30;;
15966;SDS011;15175;48.154;11.534;2023-11-19T01:55:39;2.95;;;1.00;;
15966;SDS011;15175;48.154;11.534;2023-11-19T02:01:41;1.83;;;0.93;;
15966;SDS011;15175;48.154;11.534;2023-11-19T02:07:45;2.95;;;1.08;;
15966;SDS011;15175;48.154;11.534;2023-11-19T02:13:47;3.10;;;0.90;;
15966;SDS011;15175;48.154;11.534;2023-11-19T02:19:49;1.75;;;0.80;;
15966;SDS011;15175;48.154;11.534;2023-11-19T02:25:57;2.22;;;0.90;;
15966;SDS011;15175;48.154;11.534;2023-11-19T02:32:07;6.28;;;3.63;;
15966;SDS011;15175;48.154;11.534;2023-11-19T02:38:09;1.95;;;0.90;;
15966;SDS011;15175;48.154;11.534;2023-11-19T02:44:14;2.55;;;0.82;;
15966;SDS011;15175;48.154;11.534;2023-11-19T02:50:17;1.50;;;0.50;;
15966;SDS011;15175;48.154;11.534;2023-11-19T02:56:25;2.42;;;0.70;;
15966;SDS011;15175;48.154;11.534;2023-11-19T03:02:29;1.40;;;0.70;;
15966;SDS011;15175;48.154;11.534;2023-11-19T03:08:36;1.05;;;0.47;;
15966;SDS011;15175;48.154;11.534;2023-11-19T03:14:38;1.08;;;0.40;;
15966;SDS011;15175;48.154;11.534;2023-11-19T03:20:40;3.28;;;0.55;;
15966;SDS011;15175;48.154;11.534;2023-11-19T03:26:44;0.75;;;0.20;;
15966;SDS011;15175;48.154;11.534;2023-11-19T03:32:50;0.88;;;0.43;;
15966;SDS011;15175;48.154;11.534;2023-11-19T03:38:52;1.75;;;0.50;;
15966;SDS011;15175;48.154;11.534;2023-11-19T03:44:56;1.25;;;0.40;;
15966;SDS011;15175;48.154;11.534;2023-11-19T03:50:58;0.85;;;0.40;;
15966;SDS011;15175;48.154;11.534;2023-11-19T03:57:00;1.05;;;0.40;;
15966;SDS011;15175;48.154;11.534;2023-11-19T04:03:05;0.28;;;0.10;;
15966;SDS011;15175;48.154;11.534;2023-11-19T04:09:07;0.40;;;0.22;;
15966;SDS011;15175;48.154;11.534;2023-11-19T04:15:10;0.65;;;0.30;;
15966;SDS011;15175;48.154;11.534;2023-11-19T04:21:14;2.05;;;0.43;;
15966;SDS011;15175;48.154;11.534;2023-11-19T04:27:16;0.30;;;0.20;;
15966;SDS011;15175;48.154;11.534;2023-11-19T04:33:18;0.80;;;0.40;;
15966;SDS011;15175;48.154;11.534;2023-11-19T04:39:22;0.50;;;0.30;;
15966;SDS011;15175;48.154;11.534;2023-11-19T04:45:24;0.55;;;0.22;;
15966;SDS011;15175;48.154;11.534;2023-11-19T04:51:26;1.00;;;0.47;;
15966;SDS011;15175;48.154;11.534;2023-11-19T04:57:29;0.40;;;0.22;;
15966;SDS011;15175;48.154;11.534;2023-11-19T05:03:32;3.30;;;0.45;;
15966;SDS011;15175;48.154;11.534;2023-11-19T05:09:36;1.52;;;0.50;;
15966;SDS011;15175;48.154;11.534;2023-11-19T05:15:39;0.25;;;0.17;;
15966;SDS011;15175;48.154;11.534;2023-11-19T05:21:41;0.50;;;0.28;;
15966;SDS011;15175;48.154;11.534;2023-11-19T05:27:44;1.52;;;0.50;;
15966;SDS011;15175;48.154;11.534;2023-11-19T05:33:47;0.57;;;0.30;;
15966;SDS011;15175;48.154;11.534;2023-11-19T05:39:49;2.08;;;0.35;;
15966;SDS011;15175;48.154;11.534;2023-11-19T05:45:52;1.02;;;0.30;;
15966;SDS011;15175;48.154;11.534;2023-11-19T05:51:56;1.38;;;0.38;;
15966;SDS011;15175;48.154;11.534;2023-11-19T05:57:58;0.98;;;0.60;;
15966;SDS011;15175;48.154;11.534;2023-11-19T06:04:00;0.93;;;0.32;;
15966;SDS011;15175;48.154;11.534;2023-11-19T06:10:04;1.13;;;0.35;;
15966;SDS011;15175;48.154;11.534;2023-11-19T06:16:07;1.83;;;0.40;;
15966;SDS011;15175;48.154;11.534;2023-11-19T06:22:09;1.13;;;0.35;;
15966;SDS011;15175;48.154;11.534;2023-11-19T06:28:13;0.70;;;0.20;;
15966;SDS011;15175;48.154;11.534;2023-11-19T06:34:15;0.47;;;0.20;;
15966;SDS011;15175;48.154;11.534;2023-11-19T06:40:17;0.40;;;0.17;;
15966;SDS011;15175;48.154;11.534;2023-11-19T06:46:21;0.45;;;0.20;;
15966;SDS011;15175;48.154;11.534;2023-11-19T06:52:23;0.55;;;0.10;;
15966;SDS011;15175;48.154;11.534;2023-11-19T06:58:25;1.20;;;0.20;;
15966;SDS011;15175;48.154;11.534;2023-11-19T07:04:29;1.00;;;0.22;;
15966;SDS011;15175;48.154;11.534;2023-11-19T07:10:31;1.15;;;0.15;;
15966;SDS011;15175;48.154;11.534;2023-11-19T07:16:34;2.50;;;0.13;;
15966;SDS011;15175;48.154;11.534;2023-11-19T07:22:38;0.20;;;0.20;;
15966;SDS011;15175;48.154;11.534;2023-11-19T07:28:41;1.08;;;0.35;;
15966;SDS011;15175;48.154;11.534;2023-11-19T07:34:45;0.17;;;0.17;;
15966;SDS011;15175;48.154;11.534;2023-11-19T07:40:48;0.43;;;0.20;;
15966;SDS011;15175;48.154;11.534;2023-11-19T07:46:50;0.60;;;0.20;;
15966;SDS011;15175;48.154;11.534;2023-11-19T07:52:52;1.08;;;0.50;;
15966;SDS011;15175;48.154;11.534;2023-11-19T07:58:56;0.70;;;0.22;;
15966;SDS011;15175;48.154;11.534;2023-11-19T08:04:58;0.65;;;0.30;;
15966;SDS011;15175;48.154;11.534;2023-11-19T08:11:00;0.65;;;0.20;;
15966;SDS011;15175;48.154;11.534;2023-11-19T08:17:04;0.95;;;0.30;;
15966;SDS011;15175;48.154;11.534;2023-11-19T08:23:06;0.30;;;0.10;;
15966;SDS011;15175;48.154;11.534;2023-11-19T08:29:08;0.30;;;0.20;;
15966;SDS011;15175;48.154;11.534;2023-11-19T08:35:12;0.40;;;0.20;;
15966;SDS011;15175;48.154;11.534;2023-11-19T08:41:16;0.10;;;0.10;;
15966;SDS011;15175;48.154;11.534;2023-11-19T08:47:19;0.73;;;0.22;;
15966;SDS011;15175;48.154;11.534;2023-11-19T08:53:24;1.10;;;0.30;;
15966;SDS011;15175;48.154;11.534;2023-11-19T08:59:26;0.28;;;0.20;;
15966;SDS011;15175;48.154;11.534;2023-11-19T09:05:28;1.13;;;0.30;;
15966;SDS011;15175;48.154;11.534;2023-11-19T09:11:32;0.52;;;0.28;;
15966;SDS011;15175;48.154;11.534;2023-11-19T09:17:34;1.65;;;0.50;;
15966;SDS011;15175;48.154;11.534;2023-11-19T09:23:36;1.85;;;0.52;;
15966;SDS011;15175;48.154;11.534;2023-11-19T09:29:40;0.30;;;0.30;;
15966;SDS011;15175;48.154;11.534;2023-11-19T09:35:43;2.08;;;0.30;;
15966;SDS011;15175;48.154;11.534;2023-11-19T09:41:45;0.98;;;0.38;;
15966;SDS011;15175;48.154;11.534;2023-11-19T09:47:49;0.77;;;0.38;;
15966;SDS011;15175;48.154;11.534;2023-11-19T09:53:53;1.70;;;0.28;;
15966;SDS011;15175;48.154;11.534;2023-11-19T09:59:56;0.52;;;0.28;;
15966;SDS011;15175;48.154;11.534;2023-11-19T10:06:00;1.90;;;0.50;;
15966;SDS011;15175;48.154;11.534;2023-11-19T10:12:03;1.05;;;0.50;;
15966;SDS011;15175;48.154;11.534;2023-11-19T10:18:06;1.23;;;0.60;;
15966;SDS011;15175;48.154;11.534;2023-11-19T10:24:10;0.50;;;0.30;;
15966;SDS011;15175;48.154;11.534;2023-11-19T10:30:12;2.38;;;0.98;;
15966;SDS011;15175;48.154;11.534;2023-11-19T10:36:14;1.20;;;0.30;;
15966;SDS011;15175;48.154;11.534;2023-11-19T10:42:19;1.67;;;0.40;;
15966;SDS011;15175;48.154;11.534;2023-11-19T10:48:21;0.80;;;0.32;;
15966;SDS011;15175;48.154;11.534;2023-11-19T10:54:25;0.50;;;0.20;;
15966;SDS011;15175;48.154;11.534;2023-11-19T11:00:30;0.75;;;0.35;;
15966;SDS011;15175;48.154;11.534;2023-11-19T11:06:39;0.95;;;0.50;;
15966;SDS011;15175;48.154;11.534;2023-11-19T11:12:41;0.98;;;0.40;;
15966;SDS011;15175;48.154;11.534;2023-11-19T11:18:46;1.02;;;0.30;;
15966;SDS011;15175;48.154;11.534;2023-11-19T11:24:55;0.65;;;0.20;;
15966;SDS011;15175;48.154;11.534;2023-11-19T11:31:14;1.02;;;0.32;;
15966;SDS011;15175;48.154;11.534;2023-11-19T11:37:30;1.65;;;0.40;;
15966;SDS011;15175;48.154;11.534;2023-11-19T11:43:43;0.95;;;0.30;;
15966;SDS011;15175;48.154;11.534;2023-11-19T11:49:46;0.75;;;0.25;;
15966;SDS011;15175;48.154;11.534;2023-11-19T11:55:54;0.10;;;0.10;;
15966;SDS011;15175;48.154;11.534;2023-11-19T12:01:59;0.95;;;0.30;;
15966;SDS011;15175;48.154;11.534;2023-11-19T12:08:02;0.90;;;0.30;;
15966;SDS011;15175;48.154;11.534;2023-11-19T12:14:08;1.55;;;0.45;;
15966;SDS011;15175;48.154;11.534;2023-11-19T12:20:10;1.00;;;0.20;;
15966;SDS011;15175;48.154;11.534;2023-11-19T12:26:30;0.47;;;0.20;;
15966;SDS011;15175;48.154;11.534;2023-11-19T12:32:41;1.40;;;0.52;;
15966;SDS011;15175;48.154;11.534;2023-11-19T12:38:44;1.10;;;0.30;;
15966;SDS011;15175;48.154;11.534;2023-11-19T12:50:57;1.77;;;0.60;;
15966;SDS011;15175;48.154;11.534;2023-11-19T12:57:01;0.55;;;0.20;;
15966;SDS011;15175;48.154;11.534;2023-11-19T13:03:08;0.77;;;0.20;;
15966;SDS011;15175;48.154;11.534;2023-11-19T13:09:22;1.33;;;0.50;;
15966;SDS011;15175;48.154;11.534;2023-11-19T13:15:27;1.15;;;0.52;;
15966;SDS011;15175;48.154;11.534;2023-11-19T13:21:32;1.13;;;0.55;;
15966;SDS011;15175;48.154;11.534;2023-11-19T13:27:35;1.27;;;0.30;;
15966;SDS011;15175;48.154;11.534;2023-11-19T13:33:37;2.42;;;0.65;;
15966;SDS011;15175;48.154;11.534;2023-11-19T13:39:41;1.23;;;0.40;;
15966;SDS011;15175;48.154;11.534;2023-11-19T13:45:45;1.40;;;0.38;;
15966;SDS011;15175;48.154;11.534;2023-11-19T13:51:47;0.60;;;0.20;;
15966;SDS011;15175;48.154;11.534;2023-11-19T13:57:49;1.92;;;0.40;;
15966;SDS011;15175;48.154;11.534;2023-11-19T14:03:52;1.75;;;0.57;;
15966;SDS011;15175;48.154;11.534;2023-11-19T14:09:54;1.48;;;0.52;;
15966;SDS011;15175;48.154;11.534;2023-11-19T14:15:56;1.02;;;0.40;;
15966;SDS011;15175;48.154;11.534;2023-11-19T14:22:00;0.90;;;0.30;;
15966;SDS011;15175;48.154;11.534;2023-11-19T14:28:02;1.73;;;0.38;;
15966;SDS011;15175;48.154;11.534;2023-11-19T14:34:05;1.92;;;0.80;;
15966;SDS011;15175;48.154;11.534;2023-11-19T14:40:09;2.08;;;0.60;;
15966;SDS011;15175;48.154;11.534;2023-11-19T14:46:11;0.50;;;0.20;;
15966;SDS011;15175;48.154;11.534;2023-11-19T14:52:14;2.25;;;0.70;;
15966;SDS011;15175;48.154;11.534;2023-11-19T14:58:17;0.65;;;0.35;;
15966;SDS011;15175;48.154;11.534;2023-11-19T15:04:20;0.45;;;0.20;;
15966;SDS011;15175;48.154;11.534;2023-11-19T15:10:22;1.10;;;0.40;;
15966;SDS011;15175;48.154;11.534;2023-11-19T15:16:26;1.35;;;0.40;;
15966;SDS011;15175;48.154;11.534;2023-11-19T15:22:33;1.58;;;0.40;;
15966;SDS011;15175;48.154;11.534;2023-11-19T15:28:35;1.40;;;0.35;;
15966;SDS011;15175;48.154;11.534;2023-11-19T15:34:39;3.35;;;0.52;;
15966;SDS011;15175;48.154;11.534;2023-11-19T15:40:41;1.35;;;0.45;;
15966;SDS011;15175;48.154;11.534;2023-11-19T15:46:44;3.50;;;0.70;;
15966;SDS011;15175;48.154;11.534;2023-11-19T15:52:47;1.77;;;0.65;;
15966;SDS011;15175;48.154;11.534;2023-11-19T15:58:50;7.78;;;1.38;;
15966;SDS011;15175;48.154;11.534;2023-11-19T16:04:52;2.10;;;0.88;;
15966;SDS011;15175;48.154;11.534;2023-11-19T16:10:55;4.93;;;1.10;;
15966;SDS011;15175;48.154;11.534;2023-11-19T16:16:58;1.80;;;0.63;;
15966;SDS011;15175;48.154;11.534;2023-11-19T16:23:00;2.03;;;0.82;;
15966;SDS011;15175;48.154;11.534;2023-11-19T16:29:06;3.03;;;1.30;;
15966;SDS011;15175;48.154;11.534;2023-11-19T16:35:09;1.80;;;0.70;;
15966;SDS011;15175;48.154;11.534;2023-11-19T16:41:11;3.20;;;0.90;;
15966;SDS011;15175;48.154;11.534;2023-11-19T16:47:15;3.05;;;0.80;;
15966;SDS011;15175;48.154;11.534;2023-11-19T16:53:17;0.57;;;0.30;;
15966;SDS011;15175;48.154;11.534;2023-11-19T16:59:20;2.38;;;1.27;;
15966;SDS011;15175;48.154;11.534;2023-11-19T17:05:23;1.38;;;0.50;;
15966;SDS011;15175;48.154;11.534;2023-11-19T17:11:25;1.13;;;0.60;;
15966;SDS011;15175;48.154;11.534;2023-11-19T17:17:27;1.75;;;0.55;;
15966;SDS011;15175;48.154;11.534;2023-11-19T17:23:37;2.22;;;0.68;;
15966;SDS011;15175;48.154;11.534;2023-11-19T17:29:40;2.22;;;0.65;;
15966;SDS011;15175;48.154;11.534;2023-11-19T17:35:42;1.05;;;0.45;;
15966;SDS011;15175;48.154;11.534;2023-11-19T17:41:47;1.63;;;0.60;;
15966;SDS011;15175;48.154;11.534;2023-11-19T17:47:49;1.70;;;0.70;;
15966;SDS011;15175;48.154;11.534;2023-11-19T17:53:52;3.10;;;0.90;;
15966;SDS011;15175;48.154;11.534;2023-11-19T18:05:58;3.63;;;0.90;;
15966;SDS011;15175;48.154;11.534;2023-11-19T18:12:00;1.98;;;0.88;;
15966;SDS011;15175;48.154;11.534;2023-11-19T18:18:04;2.10;;;0.70;;
15966;SDS011;15175;48.154;11.534;2023-11-19T18:24:06;2.13;;;0.60;;
15966;SDS011;15175;48.154;11.534;2023-11-19T18:30:10;2.13;;;0.60;;
15966;SDS011;15175;48.154;11.534;2023-11-19T18:36:15;2.13;;;0.60;;
15966;SDS011;15175;48.154;11.534;2023-11-19T18:42:17;4.13;;;0.98;;
15966;SDS011;15175;48.154;11.534;2023-11-19T18:48:19;3.30;;;1.00;;
15966;SDS011;15175;48.154;11.534;2023-11-19T18:54:23;2.08;;;0.68;;
15966;SDS011;15175;48.154;11.534;2023-11-19T19:00:25;2.60;;;0.70;;
15966;SDS011;15175;48.154;11.534;2023-11-19T19:06:27;1.98;;;0.50;;
15966;SDS011;15175;48.154;11.534;2023-11-19T19:12:31;0.82;;;0.57;;
15966;SDS011;15175;48.154;11.534;2023-11-19T19:18:35;3.92;;;0.80;;
15966;SDS011;15175;48.154;11.534;2023-11-19T19:24:37;2.10;;;0.50;;
15966;SDS011;15175;48.154;11.534;2023-11-19T19:30:41;1.73;;;0.70;;
15966;SDS011;15175;48.154;11.534;2023-11-19T19:36:44;1.05;;;0.57;;
15966;SDS011;15175;48.154;11.534;2023-11-19T19:42:46;2.35;;;0.70;;
15966;SDS011;15175;48.154;11.534;2023-11-19T19:48:49;2.10;;;0.60;;
15966;SDS011;15175;48.154;11.534;2023-11-19T19:54:53;1.27;;;0.57;;
15966;SDS011;15175;48.154;11.534;2023-11-19T20:00:56;4.25;;;0.68;;
15966;SDS011;15175;48.154;11.534;2023-11-19T20:07:01;3.50;;;1.10;;
15966;SDS011;15175;48.154;11.534;2023-11-19T20:13:03;1.42;;;0.60;;
15966;SDS011;15175;48.154;11.534;2023-11-19T20:19:09;3.00;;;0.93;;
15966;SDS011;15175;48.154;11.534;2023-11-19T20:25:13;4.80;;;1.00;;
15966;SDS011;15175;48.154;11.534;2023-11-19T20:31:15;3.30;;;0.90;;
15966;SDS011;15175;48.154;11.534;2023-11-19T20:37:18;3.40;;;0.80;;
15966;SDS011;15175;48.154;11.534;2023-11-19T20:43:22;3.50;;;0.68;;
15966;SDS011;15175;48.154;11.534;2023-11-19T20:49:25;2.72;;;0.85;;
15966;SDS011;15175;48.154;11.534;2023-11-19T20:55:27;4.85;;;0.43;;
15966;SDS011;15175;48.154;11.534;2023-11-19T21:01:30;2.28;;;0.50;;
15966;SDS011;15175;48.154;11.534;2023-11-19T21:07:33;1.58;;;0.45;;
15966;SDS011;15175;48.154;11.534;2023-11-19T21:13:35;2.65;;;0.52;;
15966;SDS011;15175;48.154;11.534;2023-11-19T21:19:38;0.85;;;0.63;;
15966;SDS011;15175;48.154;11.534;2023-11-19T21:25:42;2.03;;;0.60;;
15966;SDS011;15175;48.154;11.534;2023-11-19T21:31:44;0.63;;;0.28;;
15966;SDS011;15175;48.154;11.534;2023-11-19T21:37:48;0.77;;;0.47;;
15966;SDS011;15175;48.154;11.534;2023-11-19T21:43:50;1.25;;;0.40;;
15966;SDS011;15175;48.154;11.534;2023-11-19T21:49:52;2.63;;;0.80;;
15966;SDS011;15175;48.154;11.534;2023-11-19T21:55:56;1.58;;;0.60;;
15966;SDS011;15175;48.154;11.534;2023-11-19T22:01:59;0.73;;;0.50;;
15966;SDS011;15175;48.154;11.534;2023-11-19T22:08:02;0.80;;;0.30;;
15966;SDS011;15175;48.154;11.534;2023-11-19T22:14:05;1.77;;;0.38;;
15966;SDS011;15175;48.154;11.534;2023-11-19T22:20:08;1.77;;;0.47;;
15966;SDS011;15175;48.154;11.534;2023-11-19T22:26:10;1.15;;;0.32;;
15966;SDS011;15175;48.154;11.534;2023-11-19T22:32:14;0.65;;;0.30;;
15966;SDS011;15175;48.154;11.534;2023-11-19T22:38:16;0.95;;;0.30;;
15966;SDS011;15175;48.154;11.534;2023-11-19T22:44:20;1.63;;;0.40;;
15966;SDS011;15175;48.154;11.534;2023-11-19T22:50:25;1.08;;;0.47;;
15966;SDS011;15175;48.154;11.534;2023-11-19T22:56:27;1.00;;;0.40;;
15966;SDS011;15175;48.154;11.534;2023-11-19T23:02:29;0.95;;;0.25;;
15966;SDS011;15175;48.154;11.534;2023-11-19T23:08:33;0.98;;;0.60;;
15966;SDS011;15175;48.154;11.534;2023-11-19T23:14:36;2.70;;;0.40;;
15966;SDS011;15175;48.154;11.534;2023-11-19T23:20:38;2.20;;;0.30;;
15966;SDS011;15175;48.154;11.534;2023-11-19T23:26:42;0.63;;;0.30;;
15966;SDS011;15175;48.154;11.534;2023-11-19T23:32:44;0.88;;;0.22;;
15966;SDS011;15175;48.154;11.534;2023-11-19T23:38:46;0.60;;;0.30;;
15966;SDS011;15175;48.154;11.534;2023-11-19T23:44:50;1.90;;;0.40;;
15966;SDS011;15175;48.154;11.534;2023-11-19T23:50:52;0.88;;;0.30;;
15966;SDS011;15175;48.154;11.534;2023-11-19T23:56:55;1.15;;;0.30;;
